Time;durP1;ratioP1;P1;durP2;ratioP2;P2;SDS_P1;SDS_P2;PMS_P1;PMS_P2;Temp;Humidity;BMP_temperature;BMP_pressure;BME280_temperature;BME280_humidity;BME280_pressure;Samples;Min_cycle;Max_cycle;Signal;HPM_P1;HPM_P2
2022/05/13 00:01:06;;;;;;;271.77;162.57;;;13.90;1.00;;;;;;4966384;28;20733;-51
2022/05/13 00:03:32;;;;;;;215.33;141.30;;;13.90;1.00;;;;;;4968702;28;20232;-51
2022/05/13 00:05:58;;;;;;;219.95;145.77;;;;;;;;;;4967565;28;20839;-50
2022/05/13 00:08:24;;;;;;;236.05;145.75;;;;;;;;;;4970230;28;20197;-52
2022/05/13 00:10:49;;;;;;;240.95;149.40;;;13.90;99.90;;;;;;4964732;28;20225;-50
2022/05/13 00:13:15;;;;;;;205.67;134.83;;;14.00;1.00;;;;;;4970515;28;20209;-49
2022/05/13 00:15:44;;;;;;;198.17;130.47;;;;;;;;;;4971086;28;20225;-49
2022/05/13 00:18:10;;;;;;;197.80;129.63;;;13.80;99.90;;;;;;4971267;28;20562;-50
2022/05/13 00:20:37;;;;;;;208.38;134.68;;;13.80;1.00;;;;;;4967507;28;20203;-50
2022/05/13 00:23:03;;;;;;;181.95;128.50;;;13.70;1.00;;;;;;4969696;28;20178;-52
2022/05/13 00:25:31;;;;;;;223.70;140.90;;;13.70;78.80;;;;;;4962394;28;20269;-51
2022/05/13 00:27:59;;;;;;;242.52;145.90;;;13.70;99.90;;;;;;4960373;28;20566;-50
2022/05/13 00:30:26;;;;;;;193.77;128.20;;;12.90;99.90;;;;;;4965761;28;20448;-50
2022/05/13 00:32:52;;;;;;;268.17;156.57;;;;;;;;;;4964682;28;20539;-50
2022/05/13 00:35:19;;;;;;;224.93;139.83;;;13.60;99.90;;;;;;4968915;28;20558;-50
2022/05/13 00:37:45;;;;;;;166.60;117.67;;;;;;;;;;4969114;28;20249;-50
2022/05/13 00:40:12;;;;;;;206.33;130.63;;;13.60;99.90;;;;;;4972655;28;20606;-50
2022/05/13 00:42:38;;;;;;;218.33;136.90;;;13.40;99.90;;;;;;4965740;28;20707;-50
2022/05/13 00:45:05;;;;;;;211.53;135.87;;;13.50;99.90;;;;;;4967065;28;20845;-51
2022/05/13 00:47:31;;;;;;;210.75;137.18;;;;;;;;;;4963359;28;20217;-51
2022/05/13 00:49:59;;;;;;;190.93;131.47;;;13.60;99.90;;;;;;4972826;28;20221;-51
2022/05/13 00:52:26;;;;;;;203.98;132.65;;;13.60;1.00;;;;;;4964736;28;20217;-49
2022/05/13 00:54:53;;;;;;;184.80;125.30;;;13.40;99.90;;;;;;4965553;28;20229;-49
2022/05/13 00:57:21;;;;;;;215.25;132.57;;;13.50;99.90;;;;;;4966551;28;20607;-50
2022/05/13 00:59:49;;;;;;;144.25;110.03;;;13.60;99.90;;;;;;4971437;28;20263;-50
2022/05/13 01:02:15;;;;;;;170.80;117.63;;;13.60;99.90;;;;;;4969583;28;20182;-50
2022/05/13 01:04:42;;;;;;;180.93;118.72;;;13.50;99.90;;;;;;4974107;28;20371;-51
2022/05/13 01:07:17;;;;;;;168.67;113.77;;;13.50;1.00;;;;;;4966739;28;20688;-50
2022/05/13 01:09:51;;;;;;;205.43;122.90;;;13.40;1.00;;;;;;4964479;28;20378;-50
2022/05/13 01:12:21;;;;;;;170.90;108.53;;;13.50;1.00;;;;;;4970070;28;20217;-51
2022/05/13 01:14:52;;;;;;;116.47;88.23;;;13.30;1.00;;;;;;4966075;28;20185;-51
2022/05/13 01:20:19;;;;;;;109.05;76.82;;;13.20;1.00;;;;;;4967843;28;20228;-51
2022/05/13 01:22:49;;;;;;;220.20;111.53;;;13.30;1.00;;;;;;4966587;28;20377;-50
2022/05/13 01:25:18;;;;;;;189.87;106.27;;;13.10;1.00;;;;;;4963794;28;20221;-49
2022/05/13 01:27:46;;;;;;;157.20;87.73;;;13.30;1.00;;;;;;4966925;28;20232;-51
2022/05/13 01:30:16;;;;;;;195.27;99.30;;;13.50;1.00;;;;;;4973675;28;20265;-50
2022/05/13 01:32:42;;;;;;;153.00;86.07;;;13.00;99.90;;;;;;4959330;28;20856;-49
2022/05/13 01:35:09;;;;;;;186.93;95.55;;;13.60;99.90;;;;;;4971552;28;20190;-50
2022/05/13 01:37:35;;;;;;;104.63;69.18;;;;;;;;;;4969622;28;20579;-51
2022/05/13 01:40:03;;;;;;;196.33;101.37;;;13.20;94.90;;;;;;4968246;28;20260;-51
2022/05/13 01:42:29;;;;;;;82.27;61.70;;;13.10;99.90;;;;;;4970334;28;20324;-51
2022/05/13 01:44:56;;;;;;;115.13;67.70;;;13.30;1.00;;;;;;4970050;28;20237;-49
2022/05/13 01:47:23;;;;;;;128.07;70.80;;;;;;;;;;4969035;28;20206;-51
2022/05/13 01:49:49;;;;;;;142.70;75.77;;;;;;;;;;4969760;28;20213;-51
2022/05/13 01:52:15;;;;;;;111.80;60.47;;;;;;;;;;4972011;28;20578;-52
2022/05/13 01:54:41;;;;;;;108.00;54.30;;;;;;;;;;4969323;28;20289;-51
2022/05/13 01:57:07;;;;;;;151.18;64.95;;;12.80;64.60;;;;;;4972005;28;20218;-50
2022/05/13 01:59:32;;;;;;;176.70;75.67;;;13.10;99.90;;;;;;4961631;28;20262;-50
2022/05/13 02:01:58;;;;;;;222.05;86.65;;;;;;;;;;4965511;28;20542;-51
2022/05/13 02:04:24;;;;;;;143.88;61.03;;;;;;;;;;4969609;28;20260;-50
2022/05/13 02:06:50;;;;;;;112.33;52.30;;;;;;;;;;4969021;28;20305;-49
2022/05/13 02:09:16;;;;;;;137.23;57.60;;;;;;;;;;4974495;28;20301;-51
2022/05/13 02:11:45;;;;;;;181.20;75.53;;;;;;;;;;4964211;28;20192;-51
2022/05/13 02:14:11;;;;;;;100.67;45.37;;;;;;;;;;4969106;28;20265;-50
2022/05/13 02:16:37;;;;;;;96.65;44.03;;;;;;;;;;4973365;28;20349;-50
2022/05/13 02:19:03;;;;;;;93.95;43.10;;;;;;;;;;4975481;28;20234;-50
2022/05/13 02:21:29;;;;;;;213.47;80.13;;;;;;;;;;4972097;28;20228;-51
2022/05/13 02:23:55;;;;;;;105.43;48.80;;;;;;;;;;4969533;28;20637;-50
2022/05/13 02:26:21;;;;;;;165.07;68.72;;;13.20;1.00;;;;;;4975262;28;20221;-51
2022/05/13 02:28:47;;;;;;;123.07;51.90;;;;;;;;;;4968829;28;20240;-51
2022/05/13 02:31:14;;;;;;;157.55;66.03;;;13.10;1.00;;;;;;4966858;28;20508;-49
2022/05/13 02:33:39;;;;;;;130.47;58.83;;;;;;;;;;4973733;28;20357;-49
2022/05/13 02:36:06;;;;;;;119.38;52.85;;;13.10;1.00;;;;;;4966981;28;20225;-49
2022/05/13 02:38:33;;;;;;;130.18;59.92;;;13.10;1.00;;;;;;4967942;28;20236;-49
2022/05/13 02:41:14;;;;;;;117.35;53.03;;;12.90;1.00;;;;;;4973153;28;20627;-50
2022/05/13 02:43:42;;;;;;;150.10;63.08;;;13.00;64.70;;;;;;4968660;28;20222;-49
2022/05/13 02:46:09;;;;;;;103.63;43.72;;;12.90;1.00;;;;;;4972374;28;20228;-50
2022/05/13 02:48:35;;;;;;;144.15;57.70;;;;;;;;;;4963321;28;20218;-51
2022/05/13 02:51:01;;;;;;;179.10;68.35;;;;;;;;;;4961905;28;20217;-50
2022/05/13 02:53:27;;;;;;;112.23;45.30;;;13.10;99.90;;;;;;4963843;28;20603;-50
2022/05/13 02:55:53;;;;;;;115.97;47.70;;;;;;;;;;4974774;28;20224;-50
2022/05/13 02:58:19;;;;;;;186.10;66.70;;;;;;;;;;4970264;28;20320;-51
2022/05/13 03:00:45;;;;;;;84.85;38.53;;;;;;;;;;4967540;28;20225;-50
2022/05/13 03:03:12;;;;;;;201.32;70.97;;;12.80;1.00;;;;;;4967338;28;20263;-51
2022/05/13 03:05:38;;;;;;;113.40;47.50;;;;;;;;;;4969147;28;20524;-50
2022/05/13 03:08:06;;;;;;;158.35;60.53;;;11.50;99.90;;;;;;4974246;28;20265;-51
2022/05/13 03:10:36;;;;;;;90.40;36.75;;;12.80;1.00;;;;;;4970698;28;20701;-49
2022/05/13 03:13:02;;;;;;;194.63;67.03;;;;;;;;;;4968047;28;20209;-51
2022/05/13 03:15:28;;;;;;;143.23;53.97;;;;;;;;;;4967597;28;20661;-51
2022/05/13 03:17:55;;;;;;;209.23;74.93;;;;;;;;;;4952583;28;20642;-51
2022/05/13 03:20:22;;;;;;;121.17;44.73;;;12.50;62.10;;;;;;4969214;28;20499;-51
2022/05/13 03:22:49;;;;;;;140.88;52.50;;;12.60;99.90;;;;;;4960038;28;20331;-50
2022/05/13 03:25:15;;;;;;;159.23;56.17;;;12.50;30.50;;;;;;4964938;28;20255;-50
2022/05/13 03:27:41;;;;;;;95.40;37.95;;;12.50;1.00;;;;;;4963031;28;20245;-51
2022/05/13 03:30:10;;;;;;;156.80;57.42;;;12.60;99.90;;;;;;4960491;28;20594;-50
2022/05/13 03:32:36;;;;;;;65.37;29.13;;;;;;;;;;4963739;28;20189;-51
2022/05/13 03:35:04;;;;;;;124.85;46.90;;;12.50;99.90;;;;;;4961682;28;20196;-51
2022/05/13 03:37:30;;;;;;;162.95;57.13;;;12.60;9.80;;;;;;4956117;28;20253;-50
2022/05/13 03:39:55;;;;;;;122.57;44.63;;;;;;;;;;4973466;28;20249;-49
2022/05/13 03:42:22;;;;;;;186.70;64.20;;;;;;;;;;4960490;28;20283;-50
2022/05/13 03:44:49;;;;;;;139.75;50.42;;;12.50;1.00;;;;;;4958053;28;22834;-49
2022/05/13 03:47:15;;;;;;;191.67;66.73;;;;;;;;;;4954767;28;20325;-50
2022/05/13 03:49:42;;;;;;;103.95;38.22;;;;;;;;;;4967177;28;20274;-51
2022/05/13 03:52:08;;;;;;;147.48;54.30;;;12.40;1.00;;;;;;4961305;28;20221;-51
2022/05/13 03:54:34;;;;;;;143.60;48.47;;;;;;;;;;4978187;28;20284;-51
2022/05/13 03:57:00;;;;;;;105.47;38.97;;;;;;;;;;4970377;28;20221;-50
2022/05/13 03:59:26;;;;;;;117.60;40.70;;;;;;;;;;4966256;28;20190;-51
2022/05/13 04:01:52;;;;;;;187.27;64.40;;;;;;;;;;4959863;28;20224;-51
2022/05/13 04:04:21;;;;;;;132.87;49.10;;;;;;;;;;4964516;28;20706;-50
2022/05/13 04:09:32;;;;;;;68.97;29.52;;;12.60;99.90;;;;;;4973547;28;20487;-49
2022/05/13 04:17:28;;;;;;;235.67;82.17;;;;;;;;;;4965713;28;20566;-50
2022/05/13 04:19:55;;;;;;;136.07;52.78;;;;;;;;;;4960897;28;20222;-49
2022/05/13 04:22:24;;;;;;;126.63;47.08;;;12.70;52.10;;;;;;4961751;28;20221;-50
2022/05/13 04:24:52;;;;;;;128.00;47.87;;;12.80;1.00;;;;;;4959627;28;20304;-49
2022/05/13 04:27:19;;;;;;;131.35;49.08;;;13.00;1.00;;;;;;4968670;28;20224;-49
2022/05/13 04:29:45;;;;;;;142.20;55.17;;;;;;;;;;4956247;28;20209;-51
2022/05/13 04:32:11;;;;;;;180.67;67.57;;;;;;;;;;4963027;28;20181;-51
2022/05/13 04:34:37;;;;;;;96.65;43.35;;;13.10;1.00;;;;;;4966095;28;20229;-49
2022/05/13 04:37:03;;;;;;;117.78;50.75;;;;;;;;;;4967497;28;20329;-50
2022/05/13 04:39:29;;;;;;;210.37;83.67;;;13.10;1.00;;;;;;4964393;28;20221;-50
2022/05/13 04:44:40;;;;;;;169.05;64.38;;;;;;;;;;4955419;28;20638;-49
2022/05/13 04:48:15;;;;;;;204.48;77.00;;;;;;;;;;4962982;28;20205;-51
2022/05/13 04:49:55;;;;;;;114.90;51.67;;;13.80;28.30;;;;;;4962534;28;20305;-48
2022/05/13 04:52:21;;;;;;;124.70;55.45;;;;;;;;;;4970160;28;20287;-51
2022/05/13 04:54:47;;;;;;;130.13;59.78;;;;;;;;;;4968249;28;20434;-51
2022/05/13 04:57:13;;;;;;;203.00;83.07;;;;;;;;;;4957233;28;20229;-51
2022/05/13 04:59:39;;;;;;;104.13;53.92;;;;;;;;;;4966503;28;20197;-50
2022/05/13 05:02:04;;;;;;;181.15;78.72;;;;;;;;;;4969602;28;20182;-51
2022/05/13 05:04:30;;;;;;;110.47;57.80;;;;;;;;;;4962192;28;20236;-51
2022/05/13 05:06:56;;;;;;;142.20;69.85;;;;;;;;;;4971671;28;20217;-50
2022/05/13 05:09:22;;;;;;;100.25;57.92;;;;;;;;;;4974214;28;20217;-51
2022/05/13 05:11:48;;;;;;;125.10;72.65;;;14.10;1.00;;;;;;4967145;28;20393;-50
2022/05/13 05:14:13;;;;;;;138.93;81.07;;;14.10;99.90;;;;;;4973427;28;20181;-49
2022/05/13 05:16:39;;;;;;;119.53;75.10;;;14.20;50.70;;;;;;4974789;28;20230;-49
2022/05/13 05:19:06;;;;;;;105.13;70.50;;;;;;;;;;4960658;28;20650;-53
2022/05/13 05:21:31;;;;;;;142.40;84.05;;;14.10;1.00;;;;;;4968253;28;20221;-50
2022/05/13 05:23:58;;;;;;;121.20;82.85;;;14.50;1.00;;;;;;4974943;28;20217;-51
2022/05/13 05:26:23;;;;;;;122.05;85.38;;;;;;;;;;4977577;28;20298;-52
2022/05/13 05:28:51;;;;;;;122.15;92.35;;;;;;;;;;4972830;28;20573;-51
2022/05/13 05:31:17;;;;;;;224.13;119.30;;;;;;;;;;4977995;28;20213;-52
2022/05/13 05:33:43;;;;;;;225.02;116.35;;;;;;;;;;4947264;28;20288;-52
2022/05/13 05:36:09;;;;;;;240.38;126.85;;;14.70;1.00;;;;;;4961038;28;20233;-51
2022/05/13 05:38:35;;;;;;;217.95;123.95;;;;;;;;;;4966158;28;20236;-53
2022/05/13 05:41:01;;;;;;;131.70;96.00;;;14.50;1.00;;;;;;4971401;28;20198;-51
2022/05/13 05:43:27;;;;;;;171.90;114.97;;;;;;;;;;4962555;28;21113;-53
2022/05/13 05:45:53;;;;;;;199.45;116.15;;;;;;;;;;4963870;28;20229;-53
2022/05/13 05:48:23;;;;;;;168.18;118.00;;;14.80;1.00;;;;;;4960126;28;20222;-51
2022/05/13 05:50:53;;;;;;;170.68;120.10;;;14.80;53.40;;;;;;4969479;28;20229;-51
2022/05/13 05:57:13;;;;;;;256.20;152.37;;;15.10;1.00;;;;;;4974593;28;20204;-50
2022/05/13 05:58:49;;;;;;;227.87;146.37;;;15.10;1.00;;;;;;4954333;28;20224;-51
2022/05/13 06:01:15;;;;;;;296.88;174.60;;;;;;;;;;4964123;28;20213;-50
2022/05/13 06:03:41;;;;;;;218.50;147.27;;;;;;;;;;4953820;28;20217;-52
2022/05/13 06:06:09;;;;;;;220.23;143.55;;;15.20;1.00;;;;;;4960911;28;20420;-51
2022/05/13 06:08:35;;;;;;;279.92;154.15;;;15.30;1.00;;;;;;4953326;28;20198;-53
2022/05/13 06:11:01;;;;;;;190.80;131.57;;;;;;;;;;4970102;28;20181;-52
2022/05/13 06:13:27;;;;;;;235.55;143.10;;;;;;;;;;4976351;28;20308;-54
2022/05/13 06:15:53;;;;;;;210.75;142.10;;;;;;;;;;4969590;28;20318;-51
2022/05/13 06:18:19;;;;;;;303.58;164.93;;;;;;;;;;4957339;28;20368;-52
2022/05/13 06:20:44;;;;;;;178.32;127.63;;;15.80;99.90;;;;;;4975881;28;20208;-51
2022/05/13 06:23:10;;;;;;;269.63;154.75;;;;;;;;;;4983031;28;20268;-51
2022/05/13 06:25:36;;;;;;;183.57;126.80;;;;;;;;;;4971227;28;20236;-51
2022/05/13 06:28:02;;;;;;;211.73;140.95;;;15.70;99.90;;;;;;4976908;28;20536;-51
2022/05/13 06:30:31;;;;;;;222.55;144.98;;;15.80;1.00;;;;;;4975027;28;20748;-52
2022/05/13 06:32:58;;;;;;;286.13;162.68;;;16.00;1.00;;;;;;4972602;28;20315;-50
2022/05/13 06:35:26;;;;;;;225.32;147.77;;;16.80;1.00;;;;;;4963893;28;20204;-50
2022/05/13 06:37:52;;;;;;;255.63;161.63;;;;;;;;;;4974373;28;20221;-53
2022/05/13 06:40:18;;;;;;;277.08;167.98;;;15.90;1.00;;;;;;4965251;28;20232;-52
2022/05/13 06:42:45;;;;;;;250.00;158.85;;;;;;;;;;4966154;28;20324;-53
2022/05/13 06:45:11;;;;;;;301.50;172.18;;;15.90;1.00;;;;;;4974417;28;20309;-52
2022/05/13 06:47:37;;;;;;;239.48;156.48;;;;;;;;;;4970025;28;20302;-53
2022/05/13 06:50:07;;;;;;;255.57;157.38;;;16.00;1.00;;;;;;4979884;28;20181;-53
2022/05/13 06:52:33;;;;;;;309.35;177.68;;;;;;;;;;4970795;28;20225;-54
2022/05/13 06:54:59;;;;;;;251.82;159.80;;;;;;;;;;4968067;28;20517;-54
2022/05/13 06:57:24;;;;;;;275.17;162.43;;;16.40;99.90;;;;;;4973833;28;20808;-52
2022/05/13 06:59:50;;;;;;;297.30;171.00;;;16.50;1.00;;;;;;4975703;28;20276;-51
2022/05/13 07:02:17;;;;;;;274.65;165.50;;;16.20;98.00;;;;;;4968156;28;21804;-52
2022/05/13 07:04:44;;;;;;;334.17;190.23;;;16.50;1.00;;;;;;4970519;28;20312;-52
2022/05/13 07:07:10;;;;;;;338.48;192.88;;;16.70;1.00;;;;;;4979457;28;20321;-53
2022/05/13 07:09:36;;;;;;;293.13;179.57;;;16.90;1.00;;;;;;4978142;28;20273;-53
2022/05/13 07:12:02;;;;;;;364.25;210.63;;;;;;;;;;4972766;28;20217;-52
2022/05/13 07:14:28;;;;;;;385.13;212.90;;;;;;;;;;4963970;28;20183;-53
2022/05/13 07:16:55;;;;;;;349.33;197.07;;;17.00;1.00;;;;;;4964151;28;20218;-53
2022/05/13 07:19:22;;;;;;;479.42;241.55;;;;;;;;;;4977975;28;20215;-54
2022/05/13 07:21:48;;;;;;;392.73;213.35;;;17.10;99.90;;;;;;4976273;28;20293;-52
2022/05/13 07:24:14;;;;;;;377.80;210.80;;;;;;;;;;4973017;28;20313;-52
2022/05/13 07:26:40;;;;;;;577.92;302.50;;;;;;;;;;4966679;28;20214;-52
2022/05/13 07:29:06;;;;;;;341.17;193.30;;;;;;;;;;4966998;28;20181;-53
2022/05/13 07:31:32;;;;;;;504.13;264.60;;;17.60;1.00;;;;;;4958790;28;20213;-53
2022/05/13 07:33:58;;;;;;;358.55;199.40;;;;;;;;;;4966555;28;20304;-52
2022/05/13 07:36:24;;;;;;;379.48;207.05;;;;;;;;;;4982525;28;20311;-53
2022/05/13 07:41:34;;;;;;;369.75;206.18;;;;;;;;;;4980863;28;20749;-52
2022/05/13 07:44:00;;;;;;;401.48;217.57;;;18.00;1.00;;;;;;4980777;28;20257;-52
2022/05/13 07:46:26;;;;;;;381.30;221.13;;;18.00;1.00;;;;;;4979321;28;20399;-52
2022/05/13 07:48:52;;;;;;;358.35;202.27;;;;;;;;;;4976148;28;20300;-52
2022/05/13 07:51:18;;;;;;;381.60;208.93;;;18.40;99.90;;;;;;4977643;28;21111;-52
2022/05/13 07:53:44;;;;;;;382.35;216.38;;;18.30;1.00;;;;;;4979576;28;20213;-52
2022/05/13 07:56:10;;;;;;;398.52;225.90;;;18.50;1.00;;;;;;4963665;28;20602;-52
2022/05/13 07:58:36;;;;;;;377.73;212.43;;;;;;;;;;4982049;28;20205;-53
2022/05/13 08:01:03;;;;;;;404.23;226.70;;;;;;;;;;4977003;28;20245;-51
2022/05/13 08:03:30;;;;;;;373.50;207.68;;;;;;;;;;4979301;28;20209;-52
2022/05/13 08:06:02;;;;;;;360.70;200.67;;;19.00;68.20;;;;;;4979233;28;20511;-53
2022/05/13 08:08:37;;;;;;;397.17;237.65;;;19.20;99.90;;;;;;4979261;28;20197;-53
2022/05/13 08:11:05;;;;;;;346.92;202.27;;;19.20;60.40;;;;;;4979421;28;20308;-53
2022/05/13 08:13:33;;;;;;;361.30;213.73;;;19.50;52.70;;;;;;4977146;28;20206;-53
2022/05/13 08:16:00;;;;;;;405.40;237.82;;;;;;;;;;4979846;28;20268;-53
2022/05/13 08:18:25;;;;;;;356.55;205.13;;;;;;;;;;4981059;28;20674;-53
2022/05/13 08:20:52;;;;;;;380.75;215.70;;;;;;;;;;4976390;28;20217;-53
2022/05/13 08:23:18;;;;;;;411.67;234.48;;;19.70;1.00;;;;;;4981886;28;20683;-53
2022/05/13 08:25:44;;;;;;;371.25;214.82;;;;;;;;;;4972541;28;20579;-53
2022/05/13 08:28:11;;;;;;;281.48;196.52;;;19.50;1.00;;;;;;4974822;28;20308;-52
2022/05/13 08:30:37;;;;;;;279.63;191.95;;;19.60;99.90;;;;;;4980344;28;20682;-52
2022/05/13 08:33:08;;;;;;;246.73;169.55;;;20.50;1.00;;;;;;4980801;28;20257;-51
2022/05/13 08:35:34;;;;;;;259.60;173.93;;;19.60;1.00;;;;;;4982169;28;20182;-52
2022/05/13 08:38:00;;;;;;;207.48;152.38;;;;;;;;;;4979101;28;20340;-52
2022/05/13 08:40:32;;;;;;;297.77;190.13;;;20.00;1.00;;;;;;4981060;28;20490;-53
2022/05/13 08:43:03;;;;;;;267.98;181.85;;;20.00;99.90;;;;;;4979925;28;20311;-53
2022/05/13 08:45:29;;;;;;;272.52;179.82;;;19.90;1.00;;;;;;4981403;28;20244;-52
2022/05/13 08:47:57;;;;;;;305.08;200.52;;;20.30;1.00;;;;;;4976169;28;20771;-52
2022/05/13 08:50:23;;;;;;;330.65;204.48;;;;;;;;;;4979729;28;20655;-54
2022/05/13 08:53:16;;;;;;;364.30;211.27;;;20.50;1.00;;;;;;4981588;28;20367;-53
2022/05/13 08:55:46;;;;;;;406.63;234.18;;;20.40;99.90;;;;;;4981075;28;20271;-51
2022/05/13 08:58:24;;;;;;;451.52;260.80;;;20.40;1.00;;;;;;4973409;28;20276;-53
2022/05/13 09:00:53;;;;;;;384.30;222.75;;;20.30;1.00;;;;;;4981749;28;20417;-51
2022/05/13 09:03:36;;;;;;;396.98;232.63;;;20.60;1.00;;;;;;4976848;28;20297;-52
2022/05/13 09:06:07;;;;;;;364.08;221.02;;;20.40;1.00;;;;;;4981362;28;20224;-52
2022/05/13 09:08:34;;;;;;;386.90;227.15;;;20.50;1.00;;;;;;4979103;28;20177;-51
2022/05/13 09:11:30;;;;;;;380.55;237.85;;;20.70;1.00;;;;;;4979521;28;20191;-53
2022/05/13 09:14:05;;;;;;;117.70;30.45;;;20.70;1.00;;;;;;4976480;28;20225;-52
2022/05/13 09:16:49;;;;;;;106.72;29.33;;;20.70;1.00;;;;;;4974449;28;20826;-52
2022/05/13 09:19:57;;;;;;;96.05;26.35;;;20.60;1.00;;;;;;4978782;28;20598;-52
2022/05/13 09:22:31;;;;;;;74.28;21.73;;;20.80;1.00;;;;;;4972021;28;20753;-53
2022/05/13 09:24:56;;;;;;;95.05;25.70;;;20.90;1.00;;;;;;4977349;28;20494;-53
2022/05/13 09:27:22;;;;;;;112.85;29.20;;;20.80;1.00;;;;;;4974946;28;20603;-52
2022/05/13 09:29:47;;;;;;;83.72;24.15;;;20.80;1.00;;;;;;4975833;28;20197;-52
2022/05/13 09:32:28;;;;;;;97.90;26.50;;;20.60;1.00;;;;;;4978185;28;20582;-53
2022/05/13 09:35:05;;;;;;;92.80;26.05;;;20.70;1.00;;;;;;4978268;28;20645;-52
2022/05/13 09:37:57;;;;;;;99.10;27.65;;;20.80;1.00;;;;;;4971801;28;20653;-53
2022/05/13 09:40:25;;;;;;;99.70;27.23;;;20.70;1.00;;;;;;4974271;28;20410;-54
2022/05/13 09:42:54;;;;;;;102.32;28.00;;;20.80;1.00;;;;;;4977517;28;20551;-52
2022/05/13 09:45:26;;;;;;;74.50;20.02;;;20.70;1.00;;;;;;4984371;28;20217;-52
2022/05/13 09:48:18;;;;;;;82.63;23.80;;;20.70;1.00;;;;;;4980849;28;20225;-52
2022/05/13 09:50:53;;;;;;;74.22;21.30;;;20.70;1.00;;;;;;4981180;28;20888;-53
2022/05/13 09:53:21;;;;;;;88.78;25.10;;;20.70;1.00;;;;;;4984922;28;20235;-52
2022/05/13 09:55:49;;;;;;;42.47;14.25;;;20.90;1.00;;;;;;4979877;28;20373;-52
2022/05/13 09:58:20;;;;;;;89.50;23.90;;;21.20;1.00;;;;;;4981545;28;20590;-53
2022/05/13 10:00:50;;;;;;;107.78;29.45;;;21.20;1.00;;;;;;4982065;28;20268;-52
2022/05/13 10:03:22;;;;;;;89.05;25.70;;;21.30;1.00;;;;;;4978794;28;20259;-52
2022/05/13 10:06:17;;;;;;;53.33;16.30;;;21.10;1.00;;;;;;4983522;28;20395;-53
2022/05/13 10:08:57;;;;;;;83.90;23.80;;;21.40;1.00;;;;;;4985782;28;20200;-52
2022/05/13 10:14:34;;;;;;;110.50;29.25;;;20.80;1.00;;;;;;4980078;28;20681;-52
2022/05/13 10:17:10;;;;;;;94.57;26.95;;;20.70;1.00;;;;;;4978470;28;20209;-53
2022/05/13 10:19:47;;;;;;;112.32;29.27;;;20.60;1.00;;;;;;4978940;28;20215;-53
2022/05/13 10:22:37;;;;;;;114.80;30.23;;;20.70;1.00;;;;;;4982414;28;20213;-52
2022/05/13 10:25:16;;;;;;;94.85;25.98;;;20.70;1.00;;;;;;4980381;28;20271;-52
2022/05/13 10:28:02;;;;;;;114.80;31.48;;;20.80;1.00;;;;;;4977681;28;20975;-52
2022/05/13 10:30:49;;;;;;;68.78;21.00;;;20.70;1.00;;;;;;4983380;28;20384;-52
2022/05/13 10:33:46;;;;;;;88.95;25.98;;;20.80;1.00;;;;;;4981914;28;20731;-53
2022/05/13 10:36:18;;;;;;;111.80;30.15;;;21.70;1.00;;;;;;4983539;28;20213;-52
2022/05/13 10:39:01;;;;;;;94.25;27.45;;;21.30;1.00;;;;;;4977861;28;20193;-52
2022/05/13 10:41:43;;;;;;;119.90;33.03;;;21.50;1.00;;;;;;4978182;28;20604;-52
2022/05/13 10:44:19;;;;;;;74.68;21.80;;;21.60;1.00;;;;;;4982948;28;20697;-53
2022/05/13 10:46:58;;;;;;;71.82;20.75;;;21.60;1.00;;;;;;4979621;28;20346;-53
2022/05/13 10:49:31;;;;;;;77.43;21.88;;;21.60;1.00;;;;;;4986618;28;20328;-52
2022/05/13 10:52:08;;;;;;;132.38;34.53;;;21.40;1.00;;;;;;4976241;28;20320;-52
2022/05/13 10:55:03;;;;;;;94.70;24.80;;;21.40;1.00;;;;;;4963584;28;20244;-52
2022/05/13 10:58:07;;;;;;;88.25;24.63;;;21.30;1.00;;;;;;4963770;28;20217;-52
2022/05/13 11:00:56;;;;;;;81.57;21.02;;;21.10;1.00;;;;;;4948540;28;20260;-52
2022/05/13 11:03:51;;;;;;;248.95;56.70;;;21.30;1.00;;;;;;4952612;28;20251;-53
2022/05/13 11:06:28;;;;;;;134.40;35.25;;;21.10;1.00;;;;;;4964191;28;20256;-53
2022/05/13 11:09:23;;;;;;;189.50;44.03;;;21.00;1.00;;;;;;4968306;28;20221;-52
2022/05/13 11:11:51;;;;;;;126.78;30.30;;;20.90;1.00;;;;;;4956967;28;20225;-53
2022/05/13 11:14:34;;;;;;;181.75;40.45;;;20.40;1.00;;;;;;4968691;28;20691;-53
2022/05/13 11:17:30;;;;;;;161.57;39.28;;;20.50;19.60;;;;;;4961719;28;20554;-53
2022/05/13 11:20:09;;;;;;;112.72;28.77;;;20.40;33.10;;;;;;4972224;28;20229;-53
2022/05/13 11:22:39;;;;;;;139.93;34.80;;;20.10;43.40;;;;;;4969452;28;20209;-53
2022/05/13 11:28:35;;;;;;;135.45;32.95;;;19.90;25.50;;;;;;4968100;28;20235;-52
2022/05/13 11:31:16;;;;;;;94.35;25.35;;;19.90;31.10;;;;;;4972089;28;20213;-53
2022/05/13 11:33:45;;;;;;;116.22;30.20;;;20.10;14.20;;;;;;4968534;28;20210;-53
2022/05/13 11:36:45;;;;;;;134.25;34.17;;;20.40;1.00;;;;;;4966711;28;20301;-53
2022/05/13 11:39:32;;;;;;;132.93;33.03;;;20.40;1.00;;;;;;4964886;28;20241;-52
2022/05/13 11:42:07;;;;;;;143.82;34.20;;;20.70;1.00;;;;;;4969660;28;20217;-53
2022/05/13 11:44:51;;;;;;;120.65;32.30;;;20.70;1.00;;;;;;4970342;28;20235;-52
2022/05/13 11:47:28;;;;;;;148.75;35.70;;;20.80;1.00;;;;;;4965061;28;20237;-53
2022/05/13 11:49:56;;;;;;;133.18;34.78;;;20.90;1.00;;;;;;4970464;28;20298;-51
2022/05/13 11:52:41;;;;;;;125.95;31.92;;;20.80;1.00;;;;;;4970481;28;20747;-53
2022/05/13 11:55:22;;;;;;;121.20;30.02;;;21.00;1.00;;;;;;4969009;28;20653;-53
2022/05/13 11:57:54;;;;;;;123.15;29.00;;;20.70;1.00;;;;;;4959696;28;20610;-53
2022/05/13 12:00:20;;;;;;;207.50;49.55;;;20.40;1.00;;;;;;4953450;28;20221;-52
2022/05/13 12:02:45;;;;;;;121.60;30.65;;;20.50;1.00;;;;;;4960323;28;20189;-53
2022/05/13 12:05:16;;;;;;;180.45;39.95;;;20.70;1.00;;;;;;4960957;28;20304;-53
2022/05/13 12:07:53;;;;;;;137.32;35.72;;;20.80;1.00;;;;;;4967082;28;20653;-52
2022/05/13 12:10:26;;;;;;;94.80;25.33;;;21.40;1.00;;;;;;4968471;28;20332;-52
2022/05/13 12:13:06;;;;;;;165.07;40.30;;;21.40;1.00;;;;;;4957294;28;20336;-53
2022/05/13 12:15:57;;;;;;;139.52;36.65;;;21.30;1.00;;;;;;4960733;28;20352;-53
2022/05/13 12:18:48;;;;;;;155.38;38.38;;;21.50;1.00;;;;;;4962343;28;20213;-53
2022/05/13 12:21:27;;;;;;;236.18;56.22;;;21.00;1.00;;;;;;4965306;28;20212;-52
2022/05/13 12:23:56;;;;;;;155.13;39.40;;;21.10;1.00;;;;;;4969807;28;20217;-52
2022/05/13 12:26:51;;;;;;;199.52;48.85;;;21.10;1.00;;;;;;4962180;28;20636;-51
2022/05/13 12:29:38;;;;;;;147.52;37.10;;;21.20;1.00;;;;;;4965605;28;20276;-53
2022/05/13 12:32:04;;;;;;;178.48;44.47;;;22.10;1.00;;;;;;4960174;28;20647;-53
2022/05/13 12:38:00;;;;;;;145.80;37.03;;;22.00;1.00;;;;;;4970103;28;20270;-53
2022/05/13 12:40:34;;;;;;;157.32;40.80;;;21.90;1.00;;;;;;4966249;28;20217;-53
2022/05/13 12:43:05;;;;;;;131.43;36.28;;;21.90;1.00;;;;;;4971626;28;20213;-52
2022/05/13 12:45:36;;;;;;;72.75;21.70;;;21.80;1.00;;;;;;4966350;28;20222;-52
2022/05/13 12:48:06;;;;;;;118.88;30.70;;;21.80;1.00;;;;;;4960203;28;20698;-54
2022/05/13 12:50:42;;;;;;;127.45;33.10;;;21.50;1.00;;;;;;4971650;28;20801;-53
2022/05/13 12:53:49;;;;;;;86.43;23.83;;;21.40;1.00;;;;;;4970097;28;20182;-53
2022/05/13 12:56:25;;;;;;;106.65;27.45;;;20.90;1.00;;;;;;4925930;28;20221;-52
2022/05/13 12:59:08;;;;;;;100.20;27.05;;;21.00;1.00;;;;;;4962228;28;20999;-53
2022/05/13 13:01:34;;;;;;;143.88;36.15;;;21.10;1.00;;;;;;4968362;28;20209;-53
2022/05/13 13:04:01;;;;;;;58.25;17.55;;;21.30;1.00;;;;;;4973377;28;20323;-53
2022/05/13 13:06:40;;;;;;;98.15;26.85;;;20.90;1.00;;;;;;4964499;28;20682;-53
2022/05/13 13:09:15;;;;;;;119.82;32.85;;;20.90;1.00;;;;;;4964378;28;20249;-53
2022/05/13 13:11:57;;;;;;;150.55;37.28;;;20.80;1.00;;;;;;4972666;28;20231;-53
2022/05/13 13:14:42;;;;;;;161.90;39.50;;;20.70;1.00;;;;;;4965143;28;20511;-52
2022/05/13 13:17:20;;;;;;;182.20;45.38;;;21.30;1.00;;;;;;4963511;28;20220;-52
2022/05/13 13:19:48;;;;;;;125.60;31.83;;;21.50;1.00;;;;;;4968908;28;20301;-52
2022/05/13 13:22:18;;;;;;;121.22;30.27;;;21.50;1.00;;;;;;4968705;28;20423;-52
2022/05/13 13:24:44;;;;;;;108.05;28.90;;;20.90;99.90;;;;;;4968428;28;20286;-52
2022/05/13 13:27:17;;;;;;;139.10;35.25;;;20.80;1.00;;;;;;4965563;28;20220;-53
2022/05/13 13:29:45;;;;;;;123.65;33.47;;;20.70;1.00;;;;;;4977120;28;20590;-51
2022/05/13 13:32:19;;;;;;;126.55;33.50;;;20.40;99.90;;;;;;4973299;28;21384;-52
2022/05/13 13:35:01;;;;;;;90.32;23.77;;;20.50;1.00;;;;;;4973535;28;20301;-52
2022/05/13 13:37:34;;;;;;;103.45;27.73;;;20.20;1.00;;;;;;4971581;28;21120;-53